Vernon River, Canada
Current Conditions -  °F | °C
As of 1:00 PM on Sunday 23 Nov 2014 (Local Time) from CYYG Reporting Station
Few Clouds Few Clouds  
Wind Chill: 33°   Ceiling: Unl
Heat Index: 39°   Visibility: 15mi
Dew Point: 30°   Wind: 9mph
Humidity: 70%   Direction: 260°W
Pressure: 29.97"   Gusts: NA
Location:  46.2°N, 62.83°W
Report Text: CYYG 231700Z 26008KT 15SM FEW020 FEW240 04/M01 A2997 RMK SC1CI1 SLP149
Loading
Personal Weather Stations






























Interactive Weather Map New forecast layout! Learn more

10-Day Weather Forecast

Advertisements
Track Severe Weather on mobile